Corpus Christi Jet Center

SKYE FBO - AIRPORT SERVICES
McCampbell-Porter Airport KTFP
Call Us 24/7: (361) 758-2000
KTFP - McCampbell-Porter Airport
Updated: Tue, 23-Oct-2018 9:15pm PDT
Overcast
Overcast
 Wind from NE
Wind: NE 10 mph , 17 km/h
Temperature: 64°F , 18°C
Dew Point: 59°F , 15°C
Humidity: 83%
Barometer: 30.07 inHg , 1018.3 hPa
Clouds: Overcast
Visibility: 10 miles , 16 km
Cloud details: Overcast 1400 ft
2018/10/24 04:15 KTFP 240415Z AUTO 04009KT 10SM OVC014 18/15 A3007 RMK AO2 T01790146 PNO

Location

3141 FM 3512
Aransas Pass, TX 78336-9728
361-758-2000
2 miles N of Ingleside, TX
Only 15 min from downtown Corpus Christi 2 miles N of Ingleside, Texas and only 15 minutes from downtown Corpus Christi, Texas

(click to enlarge)

Map


View Larger Map

Skyview Aviation BBB Business Review

Call Us: 361-758-2000

or send us a message

*please use contact form for feedback only. ALL requests must be made by phone.